Погода Дубакинона 2 недели

Тверская область, Россия

27 мая-08 июня
  • 27мая
    Сегодня
    +11°
    +25°
    Небольшая облачность
    ВремяПогодаТемператураВлажностьДавлениеВетер, м/сВероятность осадков
    00:00Небольшая облачность+13°C88 %752 мм2.4 м/с2 %
    03:00Практически безоблачно+10°C58 %752 мм3.1 м/с2 %
    06:00Пасмурно, сплошная облачность+10°C63 %753 мм2.2 м/с1 %
    09:00Ясно и безоблачно+17°C55 %753 мм2.0 м/с2 %
    12:00Облачно с прояснениями+22°C45 %753 мм2.2 м/с2 %
    15:00Небольшая облачность+23°C42 %752 мм1.5 м/с3 %
    18:00Небольшая облачность+24°C40 %751 мм0.6 м/с2 %
    21:00Ясно и безоблачно+18°C65 %750 мм1.7 м/с2 %
  • 28мая
    Вторник
    +10°
    +25°
    Практически безоблачно
    ВремяПогодаТемператураВлажностьДавлениеВетер, м/сВероятность осадков
    00:00Практически безоблачно+12°C61 %750 мм2.6 м/с2 %
    03:00Облачно с прояснениями+11°C67 %750 мм2.3 м/с2 %
    06:00Облачно с прояснениями+13°C68 %750 мм2.0 м/с2 %
    09:00Практически безоблачно+20°C57 %750 мм1.7 м/с2 %
    12:00Практически безоблачно+24°C45 %750 мм1.9 м/с4 %
    15:00Практически безоблачно+24°C41 %749 мм2.3 м/с7 %
    18:00Ясно и безоблачно+25°C39 %748 мм1.0 м/с4 %
    21:00Ясно и безоблачно+20°C59 %747 мм1.2 м/с2 %
  • 29мая
    Среда
    +10°
    +25°
    Небольшая облачность
    ВремяПогодаТемператураВлажностьДавлениеВетер, м/сВероятность осадков
    00:00Ясно и безоблачно+14°C63 %746 мм2.3 м/с2 %
    03:00Небольшая облачность+10°C76 %746 мм1.7 м/с2 %
    06:00Ясно и безоблачно+13°C74 %746 мм1.4 м/с2 %
    09:00Ясно и безоблачно+22°C56 %746 мм1.2 м/с2 %
    12:00Небольшая облачность+24°C37 %746 мм1.4 м/с5 %
    15:00Небольшая облачность+25°C34 %744 мм1.2 м/с14 %
    18:00Ясно и безоблачно+25°C37 %744 мм1.5 м/с18 %
    21:00Ясно и безоблачно+20°C63 %743 мм1.9 м/с6 %
  • 30мая
    Четверг
    +11°
    +27°
    Небольшая облачность
    ВремяПогодаТемператураВлажностьДавлениеВетер, м/сВероятность осадков
    00:00Ясно и безоблачно+14°C77 %743 мм1.9 м/с2 %
    03:00Практически безоблачно+11°C88 %743 мм2.0 м/с2 %
    06:00Ясно и безоблачно+14°C84 %742 мм1.6 м/с2 %
    09:00Ясно и безоблачно+22°C60 %743 мм0.6 м/с2 %
    12:00Ясно и безоблачно+26°C42 %743 мм0.4 м/с16 %
    15:00Небольшая облачность+26°C40 %742 мм0.9 м/с34 %
    18:00Практически безоблачно+24°C49 %742 мм1.9 м/с35 %
    21:00Облачно с прояснениями+21°C67 %742 мм2.3 м/с5 %
Мы используем cookies
Соглашаюсь